Time;durP1;ratioP1;P1;durP2;ratioP2;P2;SDS_P1;SDS_P2;PMS_P1;PMS_P2;Temp;Humidity;BMP_temperature;BMP_pressure;BME280_temperature;BME280_humidity;BME280_pressure;Samples;Min_cycle;Max_cycle;Signal;HPM_P1;HPM_P2
2022/04/27 00:01:12;;;;;;;;;;;;;;;18.61;66.34;100775.56;4947424;29;1567;-50
2022/04/27 00:03:38;;;;;;;;;;;;;;;18.61;66.24;100776.41;4936596;29;1584;-60
2022/04/27 00:06:05;;;;;;;;;;;;;;;18.59;65.99;100773.00;4942489;29;1718;-51
2022/04/27 00:08:32;;;;;;;;;;;;;;;18.60;65.84;100773.84;4943982;29;1362;-60
2022/04/27 00:10:59;;;;;;;;;;;;;;;18.57;65.70;100780.31;4942941;29;1582;-50
2022/04/27 00:13:25;;;;;;;;;;;;;;;18.60;65.97;100774.72;4947041;29;1902;-49
2022/04/27 00:15:52;;;;;;;;;;;;;;;18.60;65.53;100779.19;4945988;29;1463;-50
2022/04/27 00:18:20;;;;;;;;;;;;;;;18.60;65.49;100772.03;4939380;29;1413;-50
2022/04/27 00:20:46;;;;;;;;;;;;;;;18.59;65.41;100775.69;4945234;29;1633;-60
2022/04/27 00:23:13;;;;;;;;;;;;;;;18.55;65.37;100762.69;4944350;29;1607;-50
2022/04/27 00:25:39;;;;;;;;;;;;;;;18.57;65.44;100772.28;4943285;29;1525;-59
2022/04/27 00:28:06;;;;;;;;;;;;;;;18.58;65.48;100778.47;4947195;29;1467;-60
2022/04/27 00:30:33;;;;;;;;;;;;;;;18.57;65.37;100777.66;4949052;29;1524;-60
2022/04/27 00:33:00;;;;;;;;;;;;;;;18.56;65.21;100767.06;4943885;29;1910;-49
2022/04/27 00:35:28;;;;;;;;;;;;;;;18.56;64.90;100765.25;4941638;29;1513;-60
2022/04/27 00:37:55;;;;;;;;;;;;;;;18.55;65.28;100768.06;4940232;29;1638;-60
2022/04/27 00:40:21;;;;;;;;;;;;;;;18.54;64.63;100761.00;4940522;29;1341;-50
2022/04/27 00:42:48;;;;;;;;;;;;;;;18.54;64.99;100771.69;4939627;29;1516;-50
2022/04/27 00:45:14;;;;;;;;;;;;;;;18.52;65.01;100763.78;4943021;29;1516;-50
2022/04/27 00:47:41;;;;;;;;;;;;;;;18.54;64.99;100761.81;4936749;29;1722;-60
2022/04/27 00:50:09;;;;;;;;;;;;;;;18.55;64.99;100762.69;4942875;29;1583;-60
2022/04/27 00:52:37;;;;;;;;;;;;;;;18.55;64.84;100768.91;4942215;29;1583;-60
2022/04/27 00:55:04;;;;;;;;;;;;;;;18.52;64.87;100750.41;4943787;29;1906;-50
2022/04/27 00:57:31;;;;;;;;;;;;;;;18.53;64.91;100754.78;4941337;29;1578;-51
2022/04/27 00:59:57;;;;;;;;;;;;;;;18.53;64.71;100757.47;4939793;29;1650;-60
2022/04/27 01:02:24;;;;;;;;;;;;;;;18.53;64.75;100757.47;4941854;29;1634;-60
2022/04/27 01:04:51;;;;;;;;;;;;;;;18.53;64.76;100770.84;4941470;29;1587;-60
2022/04/27 01:07:17;;;;;;;;;;;;;;;18.50;64.61;100765.75;4940827;29;1472;-60
2022/04/27 01:09:45;;;;;;;;;;;;;;;18.51;64.38;100763.94;4941396;29;1503;-60
2022/04/27 01:12:12;;;;;;;;;;;;;;;18.51;64.58;100759.44;4944515;29;1575;-60
2022/04/27 01:14:42;;;;;;;;;;;;;;;18.52;64.73;100761.13;4943197;29;1907;-60
2022/04/27 01:17:09;;;;;;;;;;;;;;;18.50;64.37;100760.41;4939036;29;1772;-60
2022/04/27 01:19:36;;;;;;;;;;;;;;;18.51;64.46;100759.44;4938115;29;1634;-60
2022/04/27 01:22:04;;;;;;;;;;;;;;;18.47;64.58;100755.31;4940732;29;1887;-60
2022/04/27 01:24:31;;;;;;;;;;;;;;;18.49;64.42;100754.19;4944631;29;1067;-59
2022/04/27 01:26:58;;;;;;;;;;;;;;;18.46;64.58;100759.84;4943448;29;1722;-50
2022/04/27 01:29:25;;;;;;;;;;;;;;;18.49;64.54;100770.28;4952156;29;1596;-60
2022/04/27 01:31:52;;;;;;;;;;;;;;;18.47;64.51;100763.34;4941629;29;1575;-50
2022/04/27 01:34:19;;;;;;;;;;;;;;;18.46;63.85;100762.50;4938514;29;1982;-60
2022/04/27 01:36:45;;;;;;;;;;;;;;;18.44;64.38;100764.47;4939994;29;1505;-60
2022/04/27 01:39:13;;;;;;;;;;;;;;;18.44;64.30;100764.47;4942687;29;1591;-60
2022/04/27 01:41:40;;;;;;;;;;;;;;;18.43;64.20;100756.56;4941678;29;1575;-49
2022/04/27 01:44:07;;;;;;;;;;;;;;;18.44;64.33;100766.28;4940946;29;1610;-50
2022/04/27 01:46:33;;;;;;;;;;;;;;;18.45;64.24;100765.31;4939408;29;1618;-49
2022/04/27 01:49:00;;;;;;;;;;;;;;;18.43;64.24;100757.41;4938219;29;1623;-49
2022/04/27 01:54:16;;;;;;;;;;;;;;;18.41;64.19;100758.53;4938926;29;1981;-60
2022/04/27 01:56:44;;;;;;;;;;;;;;;18.44;64.10;100756.44;4943183;29;1606;-49
2022/04/27 01:59:10;;;;;;;;;;;;;;;18.44;64.13;100755.56;4936158;29;1527;-60
2022/04/27 02:01:37;;;;;;;;;;;;;;;18.43;63.73;100759.25;4942456;29;1434;-60
2022/04/27 02:04:04;;;;;;;;;;;;;;;18.47;63.68;100760.69;4937925;29;1567;-61
2022/04/27 02:06:30;;;;;;;;;;;;;;;18.45;63.65;100768.00;4942470;29;1765;-61
2022/04/27 02:08:57;;;;;;;;;;;;;;;18.44;63.88;100758.25;4936777;29;1841;-60
2022/04/27 02:11:25;;;;;;;;;;;;;;;18.44;63.78;100768.97;4943716;29;1575;-61
2022/04/27 02:13:55;;;;;;;;;;;;;;;18.39;63.92;100744.44;4942967;29;1985;-60
2022/04/27 02:16:22;;;;;;;;;;;;;;;18.44;63.85;100759.13;4943250;29;1383;-60
2022/04/27 02:18:49;;;;;;;;;;;;;;;18.41;63.83;100769.25;4943445;29;1595;-60
2022/04/27 02:21:15;;;;;;;;;;;;;;;18.39;63.71;100763.16;4940252;29;1749;-49
2022/04/27 02:23:43;;;;;;;;;;;;;;;18.36;63.87;100766.94;4937959;29;1451;-50
2022/04/27 02:26:10;;;;;;;;;;;;;;;18.37;63.70;100776.69;4937969;29;1882;-50
2022/04/27 02:28:37;;;;;;;;;;;;;;;18.37;63.55;100767.81;4941858;29;1329;-49
2022/04/27 02:31:05;;;;;;;;;;;;;;;18.36;63.44;100774.97;4940205;29;1468;-50
2022/04/27 02:33:32;;;;;;;;;;;;;;;18.35;63.37;100769.78;4936874;29;1907;-50
2022/04/27 02:35:59;;;;;;;;;;;;;;;18.37;63.85;100773.16;4939416;29;1413;-60
2022/04/27 02:38:26;;;;;;;;;;;;;;;18.34;63.18;100782.28;4941054;29;1400;-50
2022/04/27 02:40:54;;;;;;;;;;;;;;;18.37;63.77;100771.31;4938006;29;1354;-60
2022/04/27 02:43:21;;;;;;;;;;;;;;;18.35;63.67;100773.28;4936857;29;1394;-60
2022/04/27 02:45:48;;;;;;;;;;;;;;;18.38;63.55;100774.84;4937391;29;1351;-60
2022/04/27 02:48:17;;;;;;;;;;;;;;;18.33;63.51;100769.91;4938710;29;1319;-60
2022/04/27 02:53:28;;;;;;;;;;;;;;;18.34;63.53;100779.59;4941486;29;1910;-60
2022/04/27 02:55:55;;;;;;;;;;;;;;;18.34;63.19;100776.09;4937758;29;1380;-60
2022/04/27 02:58:21;;;;;;;;;;;;;;;18.32;63.40;100794.13;4940036;29;1463;-60
2022/04/27 03:00:48;;;;;;;;;;;;;;;18.32;63.45;100791.44;4935717;29;1399;-60
2022/04/27 03:03:16;;;;;;;;;;;;;;;18.34;63.09;100794.81;4939359;29;1575;-60
2022/04/27 03:05:43;;;;;;;;;;;;;;;18.34;63.19;100792.16;4939703;29;1291;-60
2022/04/27 03:08:10;;;;;;;;;;;;;;;18.29;63.20;100790.72;4940446;29;1321;-60
2022/04/27 03:10:37;;;;;;;;;;;;;;;18.27;63.24;100792.69;4933725;29;1312;-61
2022/04/27 03:13:03;;;;;;;;;;;;;;;18.34;62.82;100808.22;4937817;29;1487;-60
2022/04/27 03:15:32;;;;;;;;;;;;;;;18.34;62.87;100798.34;4935153;29;1910;-61
2022/04/27 03:20:44;;;;;;;;;;;;;;;18.31;63.00;100803.13;4938778;29;1447;-60
2022/04/27 03:23:11;;;;;;;;;;;;;;;18.29;62.95;100812.13;4936603;29;1774;-60
2022/04/27 03:25:38;;;;;;;;;;;;;;;18.29;62.91;100811.28;4936722;29;1475;-60
2022/04/27 03:28:05;;;;;;;;;;;;;;;18.28;63.13;100821.16;4937949;29;1200;-60
2022/04/27 03:30:32;;;;;;;;;;;;;;;18.29;62.85;100830.03;4946244;29;1575;-61
2022/04/27 03:33:00;;;;;;;;;;;;;;;18.29;62.93;100830.88;4937093;29;1523;-61
2022/04/27 03:35:27;;;;;;;;;;;;;;;18.32;62.75;100836.94;4931752;29;1903;-61
2022/04/27 03:37:55;;;;;;;;;;;;;;;18.29;62.93;100838.91;4939049;29;1277;-49
2022/04/27 03:40:22;;;;;;;;;;;;;;;18.29;62.86;100846.09;4941447;29;1567;-51
2022/04/27 03:42:49;;;;;;;;;;;;;;;18.27;62.81;100846.22;4942910;29;1571;-50
2022/04/27 03:45:19;;;;;;;;;;;;;;;18.31;62.91;100878.09;4930300;29;1518;-50
2022/04/27 03:47:46;;;;;;;;;;;;;;;18.31;62.96;100872.75;4936909;29;1530;-50
2022/04/27 03:50:13;;;;;;;;;;;;;;;18.29;62.72;100867.50;4940577;29;1879;-60
2022/04/27 03:52:39;;;;;;;;;;;;;;;18.30;62.70;100874.53;4939882;29;1575;-60
2022/04/27 03:55:08;;;;;;;;;;;;;;;18.25;63.00;100872.25;4940249;29;1973;-60
2022/04/27 03:57:35;;;;;;;;;;;;;;;18.29;62.92;100880.88;4941745;29;1662;-60
2022/04/27 04:00:03;;;;;;;;;;;;;;;18.29;62.67;100878.22;4942435;29;1501;-60
2022/04/27 04:02:30;;;;;;;;;;;;;;;18.33;62.50;100881.50;4944437;29;1567;-60
2022/04/27 04:04:56;;;;;;;;;;;;;;;18.31;62.79;100883.44;4931503;29;1427;-60
2022/04/27 04:07:23;;;;;;;;;;;;;;;18.33;62.55;100881.50;4940955;29;1649;-60
2022/04/27 04:09:49;;;;;;;;;;;;;;;18.36;62.56;100881.22;4940648;29;1976;-60
2022/04/27 04:12:17;;;;;;;;;;;;;;;18.38;62.28;100890.84;4938432;29;1472;-60
2022/04/27 04:14:44;;;;;;;;;;;;;;;18.43;62.20;100893.13;4941258;29;1976;-60
2022/04/27 04:17:11;;;;;;;;;;;;;;;18.45;62.08;100896.53;4937270;29;1768;-60
2022/04/27 04:19:39;;;;;;;;;;;;;;;18.47;62.11;100892.72;4932207;29;1431;-60
2022/04/27 04:22:06;;;;;;;;;;;;;;;18.51;62.35;100896.00;4936351;29;1618;-60
2022/04/27 04:24:33;;;;;;;;;;;;;;;18.52;62.17;100905.72;4936595;29;1265;-60
2022/04/27 04:29:45;;;;;;;;;;;;;;;18.67;62.55;100901.75;4937728;29;1357;-60
2022/04/27 04:32:12;;;;;;;;;;;;;;;18.61;62.08;100896.09;4934482;29;1873;-62
2022/04/27 04:34:38;;;;;;;;;;;;;;;18.59;62.55;100898.88;4939477;29;1923;-59
2022/04/27 04:37:06;;;;;;;;;;;;;;;18.69;62.49;100899.78;4947123;29;1301;-61
2022/04/27 04:39:32;;;;;;;;;;;;;;;18.69;62.38;100897.13;4944650;29;1733;-60
2022/04/27 04:41:59;;;;;;;;;;;;;;;18.74;62.32;100898.56;4943423;29;1717;-62
2022/04/27 04:44:26;;;;;;;;;;;;;;;18.67;62.02;100895.56;4942346;29;1541;-60
2022/04/27 04:46:54;;;;;;;;;;;;;;;18.76;64.05;100907.31;4943701;29;1461;-60
2022/04/27 04:49:21;;;;;;;;;;;;;;;18.86;62.65;100900.22;4940005;29;1380;-60
2022/04/27 04:51:47;;;;;;;;;;;;;;;18.94;64.52;100891.53;4942264;29;1588;-60
2022/04/27 04:54:14;;;;;;;;;;;;;;;18.96;63.18;100885.06;4941040;29;1907;-60
2022/04/27 04:56:40;;;;;;;;;;;;;;;18.95;62.55;100891.41;4944642;29;1649;-60
2022/04/27 04:59:07;;;;;;;;;;;;;;;19.00;62.07;100891.00;4943056;29;1586;-54
2022/04/27 05:01:34;;;;;;;;;;;;;;;19.10;63.62;100899.97;4942034;29;1428;-53
2022/04/27 05:04:02;;;;;;;;;;;;;;;19.21;64.41;100899.84;4939338;29;1615;-55
2022/04/27 05:06:28;;;;;;;;;;;;;;;19.28;63.77;100889.47;4938525;29;1513;-51
2022/04/27 05:08:55;;;;;;;;;;;;;;;19.29;63.49;100901.88;4943432;29;1475;-60
2022/04/27 05:11:22;;;;;;;;;;;;;;;19.38;63.66;100901.06;4951238;29;1378;-61
2022/04/27 05:13:48;;;;;;;;;;;;;;;19.43;63.94;100898.81;4945062;29;1531;-63
2022/04/27 05:16:15;;;;;;;;;;;;;;;19.45;64.70;100899.53;4939065;29;1883;-51
2022/04/27 05:18:41;;;;;;;;;;;;;;;19.41;64.89;100898.09;4938995;29;1623;-61
2022/04/27 05:21:09;;;;;;;;;;;;;;;19.45;64.47;100880.75;4941698;29;1579;-50
2022/04/27 05:23:36;;;;;;;;;;;;;;;19.49;64.17;100908.16;4947302;29;1323;-52
2022/04/27 05:26:03;;;;;;;;;;;;;;;19.56;64.19;100897.75;4943482;29;1408;-61
2022/04/27 05:31:53;;;;;;;;;;;;;;;19.59;65.14;100903.69;4948822;29;1558;-56
2022/04/27 05:34:00;;;;;;;;;;;;;;;19.83;64.24;100905.19;4934949;29;1490;-51
2022/04/27 05:36:28;;;;;;;;;;;;;;;19.92;64.15;100909.75;4943904;29;1969;-62
2022/04/27 05:38:55;;;;;;;;;;;;;;;19.95;63.40;100908.63;4940883;29;1597;-61
2022/04/27 05:41:22;;;;;;;;;;;;;;;19.97;64.19;100903.97;4940339;29;1407;-51
2022/04/27 05:43:48;;;;;;;;;;;;;;;19.97;63.75;100917.38;4940664;29;1618;-53
2022/04/27 05:46:15;;;;;;;;;;;;;;;19.97;63.92;100910.16;4942928;29;1528;-61
2022/04/27 05:48:42;;;;;;;;;;;;;;;19.97;63.81;100914.69;4940694;29;1516;-51
2022/04/27 05:51:08;;;;;;;;;;;;;;;20.04;63.75;100918.53;4938582;29;1579;-61
2022/04/27 05:53:36;;;;;;;;;;;;;;;20.06;64.63;100916.56;4941903;29;1386;-53
2022/04/27 05:56:03;;;;;;;;;;;;;;;19.88;63.45;100919.06;4944083;29;1977;-61
2022/04/27 05:58:30;;;;;;;;;;;;;;;19.89;63.96;100925.28;4939111;29;1532;-50
2022/04/27 06:00:57;;;;;;;;;;;;;;;19.90;64.03;100916.25;4944467;29;1452;-60
2022/04/27 06:03:23;;;;;;;;;;;;;;;19.88;63.92;100912.84;4943785;29;1516;-53
2022/04/27 06:05:50;;;;;;;;;;;;;;;19.84;63.75;100921.16;4940372;29;1391;-51
2022/04/27 06:08:17;;;;;;;;;;;;;;;19.85;63.61;100914.78;4943404;29;1849;-60
2022/04/27 06:10:45;;;;;;;;;;;;;;;19.83;63.31;100926.66;4940221;29;1411;-60
2022/04/27 06:13:13;;;;;;;;;;;;;;;19.82;63.10;100919.63;4944738;29;1578;-51
2022/04/27 06:15:40;;;;;;;;;;;;;;;19.83;63.41;100932.88;4940558;29;1950;-60
2022/04/27 06:18:06;;;;;;;;;;;;;;;19.83;62.51;100923.97;4943591;29;1049;-50
2022/04/27 06:20:33;;;;;;;;;;;;;;;19.82;62.73;100931.19;4940776;29;1819;-50
2022/04/27 06:23:00;;;;;;;;;;;;;;;19.81;62.51;100931.31;4940755;29;1582;-60
2022/04/27 06:25:26;;;;;;;;;;;;;;;19.79;62.81;100915.34;4938529;29;1480;-52
2022/04/27 06:27:54;;;;;;;;;;;;;;;19.81;62.92;100929.47;4944598;29;1649;-52
2022/04/27 06:30:21;;;;;;;;;;;;;;;19.81;62.42;100929.47;4942547;29;1649;-52
2022/04/27 06:32:48;;;;;;;;;;;;;;;19.82;62.49;100946.44;4943687;29;1869;-59
2022/04/27 06:35:14;;;;;;;;;;;;;;;19.84;62.59;100937.28;4938518;29;1906;-50
2022/04/27 06:37:41;;;;;;;;;;;;;;;19.83;62.02;100938.25;4946844;29;1450;-53
2022/04/27 06:40:08;;;;;;;;;;;;;;;19.86;62.47;100937.97;4938765;29;1622;-52
2022/04/27 06:42:35;;;;;;;;;;;;;;;19.91;61.87;100934.88;4938498;29;1772;-52
2022/04/27 06:45:04;;;;;;;;;;;;;;;19.94;62.40;100945.34;4937702;29;1773;-52
2022/04/27 06:47:31;;;;;;;;;;;;;;;19.95;61.66;100946.19;4934626;29;1741;-52
2022/04/27 06:49:57;;;;;;;;;;;;;;;19.95;61.95;100940.81;4940028;29;1591;-52
2022/04/27 06:52:24;;;;;;;;;;;;;;;19.96;61.95;100940.69;4939718;29;1639;-49
2022/04/27 06:54:51;;;;;;;;;;;;;;;19.99;60.98;100944.94;4943682;29;1946;-60
2022/04/27 06:57:17;;;;;;;;;;;;;;;19.95;61.11;100944.34;4943206;29;1631;-50
2022/04/27 06:59:44;;;;;;;;;;;;;;;19.97;61.32;100939.69;4942284;29;1558;-53
2022/04/27 07:02:14;;;;;;;;;;;;;;;19.97;61.19;100944.22;4940601;29;1721;-60
2022/04/27 07:04:43;;;;;;;;;;;;;;;19.99;61.22;100953.81;4942092;29;1586;-52
2022/04/27 07:07:10;;;;;;;;;;;;;;;19.98;60.42;100953.97;4941009;29;1579;-51
2022/04/27 07:09:36;;;;;;;;;;;;;;;19.99;61.00;100942.25;4944263;29;1654;-60
2022/04/27 07:12:03;;;;;;;;;;;;;;;19.96;61.02;100962.16;4941764;29;1576;-60
2022/04/27 07:14:30;;;;;;;;;;;;;;;19.98;60.46;100956.66;4940557;29;1561;-60
2022/04/27 07:16:56;;;;;;;;;;;;;;;19.99;60.22;100953.81;4942184;29;2000;-60
2022/04/27 07:19:24;;;;;;;;;;;;;;;19.98;60.90;100960.19;4942284;29;1516;-59
2022/04/27 07:21:51;;;;;;;;;;;;;;;20.02;60.78;100952.72;4942443;29;1095;-59
2022/04/27 07:24:17;;;;;;;;;;;;;;;20.02;60.83;100956.25;4936727;29;1835;-52
2022/04/27 07:26:44;;;;;;;;;;;;;;;20.02;60.78;100952.72;4939601;29;1686;-51
2022/04/27 07:29:10;;;;;;;;;;;;;;;20.02;61.17;100958.09;4946145;29;1741;-60
2022/04/27 07:31:37;;;;;;;;;;;;;;;20.02;60.83;100956.25;4939412;29;1578;-52
2022/04/27 07:34:03;;;;;;;;;;;;;;;20.01;60.86;100956.38;4937190;29;1775;-60
2022/04/27 07:36:31;;;;;;;;;;;;;;;20.06;60.74;100954.97;4939738;29;1910;-50
2022/04/27 07:38:58;;;;;;;;;;;;;;;20.05;60.53;100963.16;4941976;29;1587;-59
2022/04/27 07:41:25;;;;;;;;;;;;;;;20.02;60.27;100961.63;4941685;29;1376;-52
2022/04/27 07:43:51;;;;;;;;;;;;;;;20.05;60.20;100963.16;4936501;29;1301;-52
2022/04/27 07:46:18;;;;;;;;;;;;;;;20.01;59.85;100943.78;4936279;29;1516;-60
2022/04/27 07:48:44;;;;;;;;;;;;;;;20.04;60.07;100956.94;4936935;29;1611;-60
2022/04/27 07:51:12;;;;;;;;;;;;;;;20.04;59.67;100953.44;4941694;29;1622;-51
2022/04/27 07:53:40;;;;;;;;;;;;;;;20.04;60.33;100951.59;4942377;29;1520;-51
2022/04/27 07:56:07;;;;;;;;;;;;;;;20.06;60.44;100962.19;4938695;29;1987;-60
2022/04/27 07:58:34;;;;;;;;;;;;;;;20.05;60.76;100944.38;4947081;29;1519;-60
2022/04/27 08:01:00;;;;;;;;;;;;;;;20.05;60.01;100944.38;4938546;29;1610;-59
2022/04/27 08:03:27;;;;;;;;;;;;;;;20.07;60.26;100945.09;4942184;29;1476;-60
2022/04/27 08:05:53;;;;;;;;;;;;;;;20.06;60.16;100936.19;4938733;29;1347;-60
2022/04/27 08:08:20;;;;;;;;;;;;;;;20.04;60.08;100940.84;4944607;28;1519;-51
2022/04/27 08:10:48;;;;;;;;;;;;;;;20.03;60.23;100938.28;4947245;29;1625;-53
2022/04/27 08:13:15;;;;;;;;;;;;;;;20.05;60.61;100933.63;4937634;29;1583;-50
2022/04/27 08:15:42;;;;;;;;;;;;;;;20.04;60.43;100942.69;4946368;29;1907;-60
2022/04/27 08:18:08;;;;;;;;;;;;;;;20.02;60.54;100940.13;4941878;29;976;-60
2022/04/27 08:23:20;;;;;;;;;;;;;;;20.05;60.71;100933.63;4942681;29;1746;-60
2022/04/27 08:25:48;;;;;;;;;;;;;;;20.02;60.69;100931.25;4946424;29;1382;-59
2022/04/27 08:28:16;;;;;;;;;;;;;;;19.99;60.67;100931.50;4941727;29;1587;-50
2022/04/27 08:30:43;;;;;;;;;;;;;;;20.03;60.12;100939.16;4943491;29;1629;-51
2022/04/27 08:33:11;;;;;;;;;;;;;;;20.01;60.01;100925.00;4952105;29;1626;-52
2022/04/27 08:35:37;;;;;;;;;;;;;;;20.01;60.42;100926.84;4942450;29;1903;-50
2022/04/27 08:38:04;;;;;;;;;;;;;;;20.20;59.04;100920.69;4941827;29;1797;-48
2022/04/27 08:40:31;;;;;;;;;;;;;;;20.22;59.82;100921.38;4942638;29;1709;-49
2022/04/27 08:43:01;;;;;;;;;;;;;;;20.18;59.59;100915.44;4938273;29;1559;-58
2022/04/27 08:45:28;;;;;;;;;;;;;;;20.11;60.28;100914.28;4942417;29;1322;-58
2022/04/27 08:47:54;;;;;;;;;;;;;;;20.08;59.91;100919.09;4941767;29;1641;-58
2022/04/27 08:50:22;;;;;;;;;;;;;;;20.05;60.01;100914.84;4941015;29;1726;-59
2022/04/27 08:52:49;;;;;;;;;;;;;;;20.03;59.91;100916.81;4942484;29;1630;-59
2022/04/27 08:55:16;;;;;;;;;;;;;;;20.05;59.86;100899.59;4943813;29;1907;-60
2022/04/27 08:57:43;;;;;;;;;;;;;;;20.05;60.41;100914.84;4945663;29;1640;-55
2022/04/27 09:00:13;;;;;;;;;;;;;;;20.06;60.28;100903.13;4941595;29;1468;-55
2022/04/27 09:02:40;;;;;;;;;;;;;;;20.10;60.29;100901.88;4939034;29;1471;-60
2022/04/27 09:05:08;;;;;;;;;;;;;;;20.02;60.23;100893.66;4938517;29;1380;-56
2022/04/27 09:07:38;;;;;;;;;;;;;;;20.09;59.79;100897.47;4940822;29;1356;-59
2022/04/27 09:10:06;;;;;;;;;;;;;;;20.03;60.21;100893.53;4940958;29;1448;-60
2022/04/27 09:12:33;;;;;;;;;;;;;;;20.04;60.84;100891.69;4939054;29;1579;-53
2022/04/27 09:15:04;;;;;;;;;;;;;;;20.06;59.81;100884.34;4946793;29;1485;-51
2022/04/27 09:23:00;;;;;;;;;;;;;;;19.94;61.02;100877.41;4941453;29;1286;-58
2022/04/27 09:25:34;;;;;;;;;;;;;;;19.92;61.03;100871.34;4936706;29;1632;-49
2022/04/27 09:28:01;;;;;;;;;;;;;;;19.88;60.51;100872.59;4943620;29;1520;-49
2022/04/27 09:30:29;;;;;;;;;;;;;;;19.86;60.27;100878.94;4942171;29;1352;-58
2022/04/27 09:32:57;;;;;;;;;;;;;;;19.82;60.69;100872.16;4937626;29;1626;-49
2022/04/27 09:35:32;;;;;;;;;;;;;;;19.82;60.59;100869.47;4941160;29;1586;-49
2022/04/27 09:38:11;;;;;;;;;;;;;;;19.82;60.61;100872.16;4940060;29;1750;-50
2022/04/27 09:40:43;;;;;;;;;;;;;;;19.79;60.53;100861.69;4944638;29;1617;-59
2022/04/27 09:43:12;;;;;;;;;;;;;;;19.79;60.62;100850.94;4941344;29;1622;-50
2022/04/27 09:45:39;;;;;;;;;;;;;;;19.78;60.14;100849.25;4940517;29;1793;-51
2022/04/27 09:48:08;;;;;;;;;;;;;;;19.76;60.56;100853.94;4948099;29;1586;-49
2022/04/27 09:50:50;;;;;;;;;;;;;;;19.77;60.38;100863.66;4941648;29;1480;-50
2022/04/27 09:53:17;;;;;;;;;;;;;;;19.74;60.64;100837.13;4937970;29;1845;-59
2022/04/27 09:55:47;;;;;;;;;;;;;;;19.74;60.52;100857.75;4941183;29;1972;-50
2022/04/27 09:58:14;;;;;;;;;;;;;;;19.71;60.46;100844.56;4939474;29;1444;-59
2022/04/27 10:00:43;;;;;;;;;;;;;;;19.69;60.34;100833.97;4942510;29;1503;-59
2022/04/27 10:03:11;;;;;;;;;;;;;;;19.71;60.73;100842.75;4938613;29;1567;-59
2022/04/27 10:05:38;;;;;;;;;;;;;;;19.72;60.46;100847.13;4943237;29;1442;-59
2022/04/27 10:08:05;;;;;;;;;;;;;;;19.67;60.56;100842.13;4942927;29;1584;-51
2022/04/27 10:10:32;;;;;;;;;;;;;;;19.68;60.03;100845.69;4940045;29;1441;-59
2022/04/27 10:12:59;;;;;;;;;;;;;;;19.68;60.00;100843.00;4945277;29;1378;-59
2022/04/27 10:15:26;;;;;;;;;;;;;;;19.68;59.42;100843.00;4941170;29;1510;-59
2022/04/27 10:17:54;;;;;;;;;;;;;;;19.67;60.30;100849.34;4943378;29;1973;-59
2022/04/27 10:20:29;;;;;;;;;;;;;;;19.65;60.33;100849.47;4942986;29;1734;-51
2022/04/27 10:23:11;;;;;;;;;;;;;;;19.62;59.25;100838.19;4940008;29;1746;-50
2022/04/27 10:25:39;;;;;;;;;;;;;;;19.62;59.40;100843.56;4943499;29;1666;-58
2022/04/27 10:28:16;;;;;;;;;;;;;;;19.62;59.20;100833.66;4942174;29;1415;-59
2022/04/27 10:30:43;;;;;;;;;;;;;;;19.62;59.54;100827.47;4939861;29;1372;-51
2022/04/27 10:33:10;;;;;;;;;;;;;;;19.63;59.22;100846.09;4944723;29;1405;-50
2022/04/27 10:35:38;;;;;;;;;;;;;;;19.64;59.11;100833.53;4943795;29;1587;-52
2022/04/27 10:38:05;;;;;;;;;;;;;;;19.59;59.21;100827.72;4940191;29;1906;-59
2022/04/27 10:40:33;;;;;;;;;;;;;;;19.56;59.28;100822.66;4946378;29;1637;-49
2022/04/27 10:43:04;;;;;;;;;;;;;;;19.54;58.90;100825.47;4937932;29;1341;-59
2022/04/27 10:45:30;;;;;;;;;;;;;;;19.54;57.91;100819.25;4943191;29;1523;-59
2022/04/27 10:47:57;;;;;;;;;;;;;;;19.58;57.93;100823.38;4941759;29;1343;-59
2022/04/27 10:50:29;;;;;;;;;;;;;;;19.54;57.48;100816.59;4947074;29;1807;-59
2022/04/27 10:53:01;;;;;;;;;;;;;;;19.54;57.33;100820.09;4943913;29;1570;-59
2022/04/27 10:55:45;;;;;;;;;;;;;;;19.58;56.88;100799.22;4933510;29;1565;-59
2022/04/27 10:58:16;;;;;;;;;;;;;;;19.55;57.59;100807.53;4936358;29;1961;-50
2022/04/27 11:01:01;;;;;;;;;;;;;;;19.56;55.99;100795.84;4932601;29;1378;-59
2022/04/27 11:03:29;;;;;;;;;;;;;;;19.59;55.98;100803.59;4929415;29;1581;-50
2022/04/27 11:05:57;;;;;;;;;;;;;;;19.61;54.56;100804.28;4937792;29;1529;-51
2022/04/27 11:08:28;;;;;;;;;;;;;;;19.64;55.59;100804.03;4940487;29;1342;-49
2022/04/27 11:10:55;;;;;;;;;;;;;;;19.61;55.41;100805.13;4940471;29;1368;-59
2022/04/27 11:13:27;;;;;;;;;;;;;;;19.59;55.57;100808.94;4940055;29;1356;-58
2022/04/27 11:15:54;;;;;;;;;;;;;;;19.59;56.03;100803.59;4935218;29;1361;-49
2022/04/27 11:18:20;;;;;;;;;;;;;;;19.58;55.18;100794.69;4939935;29;1914;-59
2022/04/27 11:20:47;;;;;;;;;;;;;;;19.58;54.38;100794.69;4942026;29;1634;-49
2022/04/27 11:23:20;;;;;;;;;;;;;;;19.56;55.30;100802.03;4941776;29;1940;-49
2022/04/27 11:25:51;;;;;;;;;;;;;;;19.60;54.06;100797.25;4939816;29;1368;-49
2022/04/27 11:28:18;;;;;;;;;;;;;;;19.61;54.54;100794.41;4934291;29;1390;-51
2022/04/27 11:30:45;;;;;;;;;;;;;;;19.63;54.37;100791.59;4942152;29;1350;-50
2022/04/27 11:33:13;;;;;;;;;;;;;;;19.58;54.10;100788.50;4935957;29;1301;-50
2022/04/27 11:35:40;;;;;;;;;;;;;;;19.55;53.68;100783.38;4939558;29;1515;-50
2022/04/27 11:38:08;;;;;;;;;;;;;;;19.62;53.12;100782.69;4936152;29;1915;-48
2022/04/27 11:40:37;;;;;;;;;;;;;;;19.72;53.58;100773.84;4946787;29;1497;-48
2022/04/27 11:43:06;;;;;;;;;;;;;;;19.84;53.24;100778.09;4941953;29;1623;-50
2022/04/27 11:45:33;;;;;;;;;;;;;;;19.79;53.40;100770.44;4948948;29;1617;-49
2022/04/27 11:48:01;;;;;;;;;;;;;;;19.75;54.25;100774.41;4948190;28;1626;-60
2022/04/27 11:50:27;;;;;;;;;;;;;;;19.76;53.83;100769.91;4945474;29;1563;-58
2022/04/27 11:53:01;;;;;;;;;;;;;;;19.77;54.70;100769.75;4944653;29;1579;-50
2022/04/27 11:55:28;;;;;;;;;;;;;;;19.79;54.08;100765.09;4943057;29;1446;-50
2022/04/27 11:57:54;;;;;;;;;;;;;;;19.83;54.89;100755.75;4945793;29;1981;-60
2022/04/27 12:00:23;;;;;;;;;;;;;;;19.88;54.79;100759.88;4946430;29;1563;-58
2022/04/27 12:02:50;;;;;;;;;;;;;;;20.10;54.20;100742.63;4948877;28;1553;-52
2022/04/27 12:05:16;;;;;;;;;;;;;;;20.02;55.20;100746.03;4944708;28;1584;-61
2022/04/27 12:07:48;;;;;;;;;;;;;;;20.01;55.61;100745.16;4945367;29;1515;-62
2022/04/27 12:10:15;;;;;;;;;;;;;;;20.09;55.43;100741.75;4944845;28;1392;-54
2022/04/27 12:12:43;;;;;;;;;;;;;;;20.17;55.54;100743.72;4942058;29;1329;-53
2022/04/27 12:15:11;;;;;;;;;;;;;;;20.15;55.80;100748.41;4946032;29;1600;-59
2022/04/27 12:17:43;;;;;;;;;;;;;;;20.19;56.21;100742.63;4945879;29;1899;-56
2022/04/27 12:20:11;;;;;;;;;;;;;;;20.37;55.64;100736.47;4945370;29;1467;-55
2022/04/27 12:22:51;;;;;;;;;;;;;;;20.32;56.24;100741.47;4944217;29;1449;-67
2022/04/27 12:25:17;;;;;;;;;;;;;;;20.20;56.30;100721.97;4941007;28;1451;-62
2022/04/27 12:27:44;;;;;;;;;;;;;;;20.16;56.74;100724.09;4943765;29;1318;-56
2022/04/27 12:30:12;;;;;;;;;;;;;;;20.13;57.18;100719.00;4941203;29;1491;-55
2022/04/27 12:32:38;;;;;;;;;;;;;;;20.07;57.14;100714.22;4945578;29;2011;-60
2022/04/27 12:37:51;;;;;;;;;;;;;;;20.08;56.98;100736.56;4942431;29;1972;-58
2022/04/27 12:40:18;;;;;;;;;;;;;;;20.15;57.31;100732.28;4951830;28;1414;-60
2022/04/27 12:43:00;;;;;;;;;;;;;;;20.08;56.88;100715.91;4944000;29;1566;-53
2022/04/27 12:45:27;;;;;;;;;;;;;;;20.05;56.52;100717.06;4941426;28;1446;-58
2022/04/27 12:47:54;;;;;;;;;;;;;;;20.09;56.98;100714.06;4945178;29;1717;-52
2022/04/27 12:50:22;;;;;;;;;;;;;;;20.08;57.17;100709.72;4941601;29;1650;-59
2022/04/27 12:52:49;;;;;;;;;;;;;;;20.01;56.93;100721.00;4947381;28;1526;-59
2022/04/27 12:55:16;;;;;;;;;;;;;;;20.01;57.24;100714.78;4936381;29;1626;-53
2022/04/27 12:57:43;;;;;;;;;;;;;;;20.06;56.46;100715.22;4945612;29;1906;-60
2022/04/27 13:00:11;;;;;;;;;;;;;;;20.12;56.74;100705.75;4942426;29;1390;-55
2022/04/27 13:02:37;;;;;;;;;;;;;;;20.08;56.88;100717.75;4940829;29;1486;-55
2022/04/27 13:05:05;;;;;;;;;;;;;;;20.02;57.06;100700.41;4939636;29;1394;-58
2022/04/27 13:07:33;;;;;;;;;;;;;;;19.95;57.29;100692.06;4941235;29;1401;-62
2022/04/27 13:12:44;;;;;;;;;;;;;;;20.00;56.60;100686.28;4939428;29;1363;-58
2022/04/27 13:15:11;;;;;;;;;;;;;;;19.97;56.31;100698.13;4943722;29;1693;-58
2022/04/27 13:17:38;;;;;;;;;;;;;;;19.89;56.26;100689.94;4945342;29;1923;-58